createdAt,value
2018-03-03T00:02:27.278Z,21.00
2018-03-03T00:04:55.580Z,21.00
2018-03-03T00:07:23.096Z,20.90
2018-03-03T00:09:51.406Z,20.90
2018-03-03T00:12:18.917Z,20.90
2018-03-03T00:14:46.452Z,20.90
2018-03-03T00:17:13.989Z,20.90
2018-03-03T00:19:41.519Z,20.90
2018-03-03T00:22:09.792Z,20.90
2018-03-03T00:24:38.188Z,20.90
2018-03-03T00:27:05.744Z,20.80
2018-03-03T00:29:33.276Z,20.90
2018-03-03T00:32:01.654Z,20.90
2018-03-03T00:34:29.957Z,20.80
2018-03-03T00:36:57.482Z,20.80
2018-03-03T00:39:25.801Z,20.80
2018-03-03T00:41:53.363Z,20.70
2018-03-03T00:44:20.904Z,20.80
2018-03-03T00:46:48.416Z,20.80
2018-03-03T00:49:15.948Z,20.80
2018-03-03T00:51:43.464Z,20.70
2018-03-03T00:54:11.875Z,20.70
2018-03-03T00:56:39.416Z,20.70
2018-03-03T00:59:06.954Z,20.70
2018-03-03T01:01:35.253Z,20.70
2018-03-03T01:04:02.790Z,20.70
2018-03-03T01:06:31.108Z,20.70
2018-03-03T01:08:58.640Z,20.70
2018-03-03T01:11:26.216Z,20.70
2018-03-03T01:13:53.749Z,20.70
2018-03-03T01:16:21.328Z,20.70
2018-03-03T01:18:48.840Z,20.70
2018-03-03T01:21:16.440Z,20.70
2018-03-03T01:23:43.948Z,20.60
2018-03-03T01:26:11.564Z,20.60
2018-03-03T01:28:39.080Z,20.60
2018-03-03T01:31:07.381Z,20.60
2018-03-03T01:33:34.896Z,20.60
2018-03-03T01:36:02.428Z,20.60
2018-03-03T01:38:29.965Z,20.60
2018-03-03T01:40:57.496Z,20.60
2018-03-03T01:43:25.803Z,20.60
2018-03-03T01:45:53.336Z,20.50
2018-03-03T01:48:21.616Z,20.60
2018-03-03T01:50:50.013Z,20.50
2018-03-03T01:53:17.537Z,20.50
2018-03-03T01:55:45.840Z,20.60
2018-03-03T01:58:13.361Z,20.50
2018-03-03T02:00:40.899Z,20.60
2018-03-03T02:03:08.425Z,20.60
2018-03-03T02:05:35.993Z,20.50
2018-03-03T02:08:03.569Z,20.50
2018-03-03T02:10:31.128Z,20.50
2018-03-03T02:13:04.012Z,20.50
2018-03-03T02:15:31.544Z,20.50
2018-03-03T02:17:59.051Z,20.50
2018-03-03T02:20:26.592Z,20.50
2018-03-03T02:22:54.102Z,20.50
2018-03-03T02:25:21.640Z,20.40
2018-03-03T02:27:49.969Z,20.50
2018-03-03T02:30:17.610Z,20.40
2018-03-03T02:32:45.165Z,20.40
2018-03-03T02:35:12.732Z,20.40
2018-03-03T02:37:40.283Z,20.40
2018-03-03T02:40:07.820Z,20.40
2018-03-03T02:45:07.987Z,20.40
2018-03-03T02:47:35.536Z,20.40
2018-03-03T02:50:03.103Z,20.40
2018-03-03T02:52:30.617Z,20.40
2018-03-03T02:54:58.220Z,20.40
2018-03-03T02:57:25.884Z,20.40
2018-03-03T02:59:53.412Z,20.40
2018-03-03T03:02:20.990Z,20.40
2018-03-03T03:04:48.539Z,20.40
2018-03-03T03:07:16.099Z,20.40
2018-03-03T03:09:43.645Z,20.40
2018-03-03T03:12:11.173Z,20.40
2018-03-03T03:14:38.781Z,20.40
2018-03-03T03:17:06.333Z,20.40
2018-03-03T03:19:34.001Z,20.30
2018-03-03T03:22:01.553Z,20.30
2018-03-03T03:24:29.064Z,20.30
2018-03-03T03:26:56.601Z,20.30
2018-03-03T03:29:24.124Z,20.30
2018-03-03T03:31:51.684Z,20.30
2018-03-03T03:34:19.249Z,20.30
2018-03-03T03:36:46.828Z,20.30
2018-03-03T03:39:14.345Z,20.30
2018-03-03T03:41:42.788Z,20.30
2018-03-03T03:44:10.313Z,20.20
2018-03-03T03:46:37.848Z,20.30
2018-03-03T03:49:05.412Z,20.30
2018-03-03T03:51:32.948Z,20.30
2018-03-03T03:54:01.253Z,20.20
2018-03-03T03:56:28.794Z,20.20
2018-03-03T03:58:57.076Z,20.30
2018-03-03T04:01:24.620Z,20.20
2018-03-03T04:03:52.902Z,20.20
2018-03-03T04:06:20.433Z,20.20
2018-03-03T04:08:47.957Z,20.20
2018-03-03T04:11:15.489Z,20.20
2018-03-03T04:13:43.064Z,20.20
2018-03-03T04:16:10.591Z,20.20
2018-03-03T04:18:38.883Z,20.20
2018-03-03T04:21:06.448Z,20.20
2018-03-03T04:23:34.005Z,20.20
2018-03-03T04:26:01.540Z,20.20
2018-03-03T04:28:29.821Z,20.20
2018-03-03T04:30:57.367Z,20.10
2018-03-03T04:33:25.650Z,20.20
2018-03-03T04:35:53.944Z,20.20
2018-03-03T04:38:21.463Z,20.10
2018-03-03T04:40:49.073Z,20.20
2018-03-03T04:43:16.632Z,20.20
2018-03-03T04:45:44.186Z,20.20
2018-03-03T04:48:11.705Z,20.20
2018-03-03T04:50:40.026Z,20.10
2018-03-03T04:53:07.542Z,20.10
2018-03-03T04:55:35.836Z,20.10
2018-03-03T04:58:03.352Z,20.10
2018-03-03T05:00:36.553Z,20.10
2018-03-03T05:03:23.970Z,20.10
2018-03-03T05:05:55.463Z,20.10
2018-03-03T05:08:37.858Z,20.10
2018-03-03T05:11:18.905Z,20.10
2018-03-03T05:13:48.349Z,20.00
2018-03-03T05:16:21.529Z,20.00
2018-03-03T05:18:54.823Z,20.00
2018-03-03T05:21:38.029Z,20.00
2018-03-03T05:24:12.158Z,19.90
2018-03-03T05:40:16.271Z,19.90
2018-03-03T05:42:49.556Z,19.90
2018-03-03T05:45:24.632Z,19.80
2018-03-03T05:47:57.985Z,19.90
2018-03-03T05:50:31.177Z,19.80
2018-03-03T05:53:04.507Z,19.90
2018-03-03T05:55:37.818Z,19.90
2018-03-03T05:58:17.193Z,19.90
2018-03-03T06:14:07.025Z,19.90
2018-03-03T06:16:35.305Z,19.90
2018-03-03T06:19:02.839Z,19.90
2018-03-03T06:21:30.360Z,19.90
2018-03-03T06:23:57.943Z,19.90
2018-03-03T06:26:25.458Z,19.90
2018-03-03T06:28:53.761Z,19.90
2018-03-03T06:31:21.298Z,19.90
2018-03-03T06:33:49.593Z,20.00
2018-03-03T06:36:17.129Z,19.90
2018-03-03T06:38:44.704Z,20.00
2018-03-03T06:41:12.269Z,20.00
2018-03-03T06:43:39.850Z,20.00
2018-03-03T06:46:07.372Z,20.00
2018-03-03T06:48:34.948Z,20.00
2018-03-03T06:51:02.509Z,20.00
2018-03-03T06:53:30.033Z,20.00
2018-03-03T06:55:58.336Z,20.10
2018-03-03T06:58:25.869Z,20.00
2018-03-03T07:00:54.149Z,20.20
2018-03-03T07:03:22.449Z,20.30
2018-03-03T07:05:50.017Z,20.20
2018-03-03T07:08:17.566Z,20.30
2018-03-03T07:10:45.116Z,20.30
2018-03-03T07:13:12.644Z,20.30
2018-03-03T07:15:40.920Z,20.70
2018-03-03T07:18:08.461Z,20.60
2018-03-03T07:20:35.976Z,20.70
2018-03-03T07:23:03.534Z,20.50
2018-03-03T07:25:31.049Z,20.40
2018-03-03T07:27:59.354Z,20.30
2018-03-03T07:30:26.929Z,20.30
2018-03-03T07:32:54.459Z,20.30
2018-03-03T07:35:22.764Z,20.30
2018-03-03T07:37:51.097Z,20.30
2018-03-03T07:40:18.667Z,20.30
2018-03-03T07:42:46.939Z,20.40
2018-03-03T07:45:15.241Z,20.40
2018-03-03T07:47:42.941Z,20.40
2018-03-03T07:50:11.388Z,20.40
2018-03-03T07:52:39.253Z,20.40
2018-03-03T07:55:06.812Z,20.40
2018-03-03T07:57:34.363Z,20.40
2018-03-03T08:00:01.896Z,20.40
2018-03-03T08:02:30.177Z,20.50
2018-03-03T08:04:58.480Z,20.50
2018-03-03T08:07:25.998Z,20.50
2018-03-03T08:09:54.313Z,20.50
2018-03-03T08:12:21.881Z,20.50
2018-03-03T08:14:49.425Z,20.50
2018-03-03T08:17:16.941Z,20.50
2018-03-03T08:19:44.482Z,20.60
2018-03-03T08:22:12.096Z,20.60
2018-03-03T08:24:39.629Z,20.60
2018-03-03T08:27:07.930Z,20.60
2018-03-03T08:29:35.461Z,20.60
2018-03-03T08:32:03.773Z,20.60
2018-03-03T08:34:31.306Z,20.60
2018-03-03T08:36:59.604Z,20.70
2018-03-03T08:39:27.170Z,20.60
2018-03-03T08:41:54.727Z,20.70
2018-03-03T08:44:22.388Z,20.70
2018-03-03T08:46:49.937Z,20.70
2018-03-03T08:49:17.483Z,20.60
2018-03-03T08:51:45.064Z,20.60
2018-03-03T08:54:12.613Z,20.60
2018-03-03T08:56:40.181Z,20.60
2018-03-03T08:59:07.708Z,20.60
2018-03-03T09:01:35.990Z,20.60
2018-03-03T09:04:04.397Z,20.60
2018-03-03T09:06:31.955Z,20.60
2018-03-03T09:08:59.479Z,20.60
2018-03-03T09:11:27.785Z,20.60
2018-03-03T09:13:55.332Z,20.60
2018-03-03T09:16:22.846Z,20.60
2018-03-03T09:18:50.374Z,20.60
2018-03-03T09:21:17.914Z,20.60
2018-03-03T09:23:45.449Z,20.60
2018-03-03T09:26:13.753Z,20.60
2018-03-03T09:28:41.288Z,20.60
2018-03-03T09:31:08.870Z,20.60
2018-03-03T09:33:36.417Z,20.60
2018-03-03T09:36:04.038Z,20.60
2018-03-03T09:38:31.545Z,20.60
2018-03-03T09:40:59.075Z,20.60
2018-03-03T09:43:27.404Z,20.60
2018-03-03T09:45:54.941Z,20.60
2018-03-03T09:48:22.454Z,20.60
2018-03-03T09:50:50.765Z,20.70
2018-03-03T09:53:18.272Z,20.60
2018-03-03T09:55:45.886Z,20.70
2018-03-03T09:58:13.441Z,20.70
2018-03-03T10:00:40.985Z,20.70
2018-03-03T10:03:08.502Z,20.60
2018-03-03T10:05:36.104Z,20.60
2018-03-03T10:08:03.679Z,20.70
2018-03-03T10:10:31.213Z,20.60
2018-03-03T10:12:58.737Z,20.70
2018-03-03T10:15:26.349Z,20.60
2018-03-03T10:17:53.903Z,20.60
2018-03-03T10:20:21.447Z,20.60
2018-03-03T10:22:49.772Z,20.70
2018-03-03T10:25:17.405Z,20.60
2018-03-03T10:27:45.019Z,20.70
2018-03-03T10:30:12.626Z,20.70
2018-03-03T10:32:40.180Z,20.70
2018-03-03T10:35:07.748Z,20.70
2018-03-03T10:37:35.292Z,20.70
2018-03-03T10:40:02.828Z,20.70
2018-03-03T10:42:31.109Z,20.70
2018-03-03T10:44:59.512Z,20.70
2018-03-03T10:47:27.025Z,20.60
2018-03-03T10:49:54.632Z,20.70
2018-03-03T10:52:22.167Z,20.70
2018-03-03T10:54:50.560Z,20.70
2018-03-03T10:57:18.073Z,20.60
2018-03-03T10:59:45.608Z,20.70
2018-03-03T11:02:13.141Z,20.70
2018-03-03T11:04:40.708Z,20.70
2018-03-03T11:07:08.212Z,20.70
2018-03-03T11:09:35.748Z,20.70
2018-03-03T11:12:03.265Z,20.70
2018-03-03T11:14:30.797Z,20.70
2018-03-03T11:16:59.125Z,20.70
2018-03-03T11:19:26.759Z,20.60
2018-03-03T11:21:54.268Z,20.70
2018-03-03T11:24:22.008Z,20.70
2018-03-03T11:26:49.516Z,20.70
2018-03-03T11:29:17.821Z,20.70
2018-03-03T11:31:45.385Z,20.60
2018-03-03T11:34:12.913Z,20.60
2018-03-03T11:36:41.214Z,20.70
2018-03-03T11:39:08.729Z,20.60
2018-03-03T11:41:36.314Z,20.70
2018-03-03T11:44:03.832Z,20.70
2018-03-03T11:46:31.377Z,20.70
2018-03-03T11:48:58.905Z,20.70
2018-03-03T11:51:26.457Z,20.60
2018-03-03T11:53:53.969Z,20.70
2018-03-03T11:56:21.610Z,20.70
2018-03-03T11:58:49.121Z,20.70
2018-03-03T12:01:16.687Z,20.70
2018-03-03T12:03:44.200Z,20.70
2018-03-03T12:06:11.816Z,20.70
2018-03-03T12:08:39.336Z,20.70
2018-03-03T12:11:07.632Z,20.70
2018-03-03T12:13:35.212Z,20.70
2018-03-03T12:16:02.766Z,20.70
2018-03-03T12:18:30.326Z,20.70
2018-03-03T12:20:57.857Z,20.70
2018-03-03T12:23:26.166Z,20.70
2018-03-03T12:25:53.717Z,20.70
2018-03-03T12:28:21.244Z,20.70
2018-03-03T12:30:49.667Z,20.70
2018-03-03T12:33:17.203Z,20.70
2018-03-03T12:35:44.820Z,20.70
2018-03-03T12:38:12.304Z,20.70
2018-03-03T12:40:40.644Z,20.70
2018-03-03T12:43:08.262Z,20.70
2018-03-03T12:45:35.795Z,20.70
2018-03-03T12:48:04.093Z,20.70
2018-03-03T12:50:31.660Z,20.60
2018-03-03T12:52:59.222Z,20.70
2018-03-03T12:55:26.734Z,20.70
2018-03-03T12:57:55.094Z,20.70
2018-03-03T13:00:22.609Z,20.60
2018-03-03T13:02:50.164Z,20.70
2018-03-03T13:05:17.701Z,20.70
2018-03-03T13:07:45.232Z,20.70
2018-03-03T13:10:12.847Z,20.60
2018-03-03T13:12:40.461Z,20.60
2018-03-03T13:15:08.061Z,20.60
2018-03-03T13:17:35.572Z,20.60
2018-03-03T13:20:03.151Z,20.60
2018-03-03T13:22:31.533Z,20.60
2018-03-03T13:24:59.857Z,20.60
2018-03-03T13:27:27.398Z,20.50
2018-03-03T13:29:54.949Z,20.60
2018-03-03T13:32:22.524Z,20.50
2018-03-03T13:34:50.052Z,20.50
2018-03-03T13:37:17.580Z,20.50
2018-03-03T13:39:45.097Z,20.50
2018-03-03T13:42:12.620Z,20.40
2018-03-03T13:44:40.908Z,20.40
2018-03-03T13:47:08.432Z,20.40
2018-03-03T13:49:36.033Z,20.50
2018-03-03T13:52:03.578Z,20.40
2018-03-03T13:54:31.092Z,20.50
2018-03-03T13:56:58.643Z,20.50
2018-03-03T13:59:26.166Z,20.50
2018-03-03T14:01:53.725Z,20.50
2018-03-03T14:04:21.285Z,20.60
2018-03-03T14:06:48.862Z,20.60
2018-03-03T14:09:16.357Z,20.60
2018-03-03T14:11:44.656Z,20.70
2018-03-03T14:14:12.176Z,20.60
2018-03-03T14:16:39.796Z,20.70
2018-03-03T14:19:07.358Z,20.70
2018-03-03T14:21:34.905Z,20.70
2018-03-03T14:24:02.421Z,20.80
2018-03-03T14:26:29.962Z,20.80
2018-03-03T14:28:57.582Z,20.80
2018-03-03T14:31:25.158Z,20.80
2018-03-03T14:33:52.693Z,20.80
2018-03-03T14:36:20.228Z,20.80
2018-03-03T14:38:48.534Z,20.90
2018-03-03T14:41:16.093Z,20.80
2018-03-03T14:43:43.621Z,20.90
2018-03-03T14:46:11.918Z,20.90
2018-03-03T14:48:39.428Z,20.80
2018-03-03T14:51:08.473Z,20.90
2018-03-03T14:53:35.985Z,20.90
2018-03-03T14:56:03.672Z,20.90
2018-03-03T14:58:31.963Z,20.90
2018-03-03T15:00:59.492Z,20.90
2018-03-03T15:03:27.773Z,20.90
2018-03-03T15:05:56.153Z,20.90
2018-03-03T15:08:24.466Z,20.90
2018-03-03T15:10:52.020Z,20.90
2018-03-03T15:13:19.533Z,21.00
2018-03-03T15:15:47.061Z,21.00
2018-03-03T15:18:14.575Z,21.00
2018-03-03T15:20:42.100Z,21.00
2018-03-03T15:23:09.612Z,21.00
2018-03-03T15:25:37.120Z,21.00
2018-03-03T15:28:04.717Z,20.90
2018-03-03T15:30:32.317Z,20.90
2018-03-03T15:32:59.871Z,20.90
2018-03-03T15:35:27.401Z,20.90
2018-03-03T15:37:54.958Z,20.80
2018-03-03T15:40:22.472Z,20.80
2018-03-03T15:42:50.068Z,20.80
2018-03-03T15:45:17.581Z,20.70
2018-03-03T15:47:45.117Z,20.70
2018-03-03T15:50:12.633Z,20.70
2018-03-03T15:52:40.164Z,20.70
2018-03-03T15:55:07.769Z,20.70
2018-03-03T15:57:35.307Z,20.70
2018-03-03T16:00:02.821Z,20.70
2018-03-03T16:02:30.434Z,20.70
2018-03-03T16:04:58.002Z,20.70
2018-03-03T16:07:25.534Z,20.70
2018-03-03T16:09:53.813Z,20.70
2018-03-03T16:12:22.225Z,20.80
2018-03-03T16:14:49.769Z,20.70
2018-03-03T16:17:17.301Z,20.80
2018-03-03T16:19:45.608Z,20.80
2018-03-03T16:22:13.142Z,20.80
2018-03-03T16:24:40.721Z,20.80
2018-03-03T16:27:08.286Z,20.80
2018-03-03T16:29:35.832Z,20.80
2018-03-03T16:32:03.409Z,20.80
2018-03-03T16:34:30.954Z,20.80
2018-03-03T16:36:58.501Z,20.90
2018-03-03T16:39:26.021Z,20.80
2018-03-03T16:41:53.573Z,20.80
2018-03-03T16:44:21.193Z,20.80
2018-03-03T16:46:48.719Z,20.90
2018-03-03T16:49:17.044Z,21.10
2018-03-03T16:51:44.577Z,21.10
2018-03-03T16:54:12.120Z,21.20
2018-03-03T16:56:40.563Z,21.20
2018-03-03T16:59:08.080Z,21.20
2018-03-03T17:01:35.611Z,21.30
2018-03-03T17:04:03.896Z,21.40
2018-03-03T17:06:31.473Z,21.30
2018-03-03T17:08:59.045Z,21.30
2018-03-03T17:11:26.585Z,21.40
2018-03-03T17:13:54.152Z,21.50
2018-03-03T17:16:21.709Z,21.60
2018-03-03T17:18:49.272Z,21.60
2018-03-03T17:21:16.789Z,21.60
2018-03-03T17:23:45.089Z,21.80
2018-03-03T17:26:12.645Z,21.70
2018-03-03T17:28:40.177Z,21.80
2018-03-03T17:31:08.452Z,21.90
2018-03-03T17:33:36.739Z,21.90
2018-03-03T17:36:05.036Z,21.90
2018-03-03T17:38:32.601Z,21.90
2018-03-03T17:41:00.120Z,21.90
2018-03-03T17:43:28.430Z,22.10
2018-03-03T17:45:55.942Z,22.10
2018-03-03T17:48:23.552Z,22.20
2018-03-03T17:50:51.073Z,22.20
2018-03-03T17:53:19.391Z,22.40
2018-03-03T17:55:46.950Z,22.30
2018-03-03T17:58:14.484Z,22.40
2018-03-03T18:00:42.018Z,22.40
2018-03-03T18:03:09.553Z,22.40
2018-03-03T18:05:37.060Z,22.40
2018-03-03T18:08:04.620Z,22.50
2018-03-03T18:10:32.180Z,22.50
2018-03-03T18:12:59.753Z,22.50
2018-03-03T18:15:27.300Z,22.40
2018-03-03T18:17:54.840Z,22.20
2018-03-03T18:20:23.142Z,22.10
2018-03-03T18:22:50.702Z,22.10
2018-03-03T18:25:18.339Z,22.00
2018-03-03T18:27:46.856Z,22.00
2018-03-03T18:30:14.420Z,21.90
2018-03-03T18:32:41.949Z,21.90
2018-03-03T18:35:09.472Z,21.90
2018-03-03T18:37:37.080Z,21.90
2018-03-03T18:40:04.605Z,21.90
2018-03-03T18:42:33.014Z,21.90
2018-03-03T18:45:00.556Z,21.80
2018-03-03T18:47:28.120Z,21.90
2018-03-03T18:49:55.636Z,21.80
2018-03-03T18:52:23.245Z,21.80
2018-03-03T18:54:50.796Z,21.70
2018-03-03T18:57:18.401Z,21.70
2018-03-03T18:59:46.021Z,21.70
2018-03-03T19:02:13.565Z,21.70
2018-03-03T19:04:41.094Z,21.70
2018-03-03T19:07:08.752Z,21.70
2018-03-03T19:09:36.260Z,21.70
2018-03-03T19:12:03.793Z,21.70
2018-03-03T19:14:32.073Z,21.70
2018-03-03T19:17:00.365Z,21.70
2018-03-03T19:19:27.929Z,21.70
2018-03-03T19:21:55.445Z,21.70
2018-03-03T19:24:23.744Z,21.70
2018-03-03T19:26:51.273Z,21.70
2018-03-03T19:29:19.062Z,21.70
2018-03-03T19:31:46.404Z,21.70
2018-03-03T19:34:14.725Z,21.60
2018-03-03T19:36:42.243Z,21.60
2018-03-03T19:39:10.713Z,21.60
2018-03-03T19:41:38.245Z,21.60
2018-03-03T19:44:05.873Z,21.60
2018-03-03T19:46:33.385Z,21.60
2018-03-03T19:49:00.914Z,21.60
2018-03-03T19:51:28.443Z,21.60
2018-03-03T19:53:56.002Z,21.60
2018-03-03T19:56:23.521Z,21.60
2018-03-03T19:58:51.822Z,21.60
2018-03-03T20:01:19.337Z,21.60
2018-03-03T20:03:46.878Z,21.60
2018-03-03T20:06:14.390Z,21.60
2018-03-03T20:08:41.926Z,21.60
2018-03-03T20:11:10.204Z,21.60
2018-03-03T20:13:38.616Z,21.60
2018-03-03T20:16:06.236Z,21.50
2018-03-03T20:18:34.868Z,21.60
2018-03-03T20:21:02.577Z,21.60
2018-03-03T20:23:30.130Z,21.60
2018-03-03T20:25:59.490Z,21.50
2018-03-03T20:28:27.434Z,21.50
2018-03-03T20:30:54.980Z,21.60
2018-03-03T20:33:23.307Z,21.50
2018-03-03T20:35:50.829Z,21.50
2018-03-03T20:38:18.414Z,21.50
2018-03-03T20:40:45.931Z,21.50
2018-03-03T20:43:14.235Z,21.50
2018-03-03T20:45:41.792Z,21.50
2018-03-03T20:48:09.322Z,21.50
2018-03-03T20:50:37.637Z,21.50
2018-03-03T20:53:05.177Z,21.50
2018-03-03T20:55:32.693Z,21.50
2018-03-03T20:58:00.311Z,21.50
2018-03-03T21:00:27.860Z,21.50
2018-03-03T21:02:55.431Z,21.50
2018-03-03T21:05:22.925Z,21.50
2018-03-03T21:07:50.456Z,21.40
2018-03-03T21:10:17.965Z,21.40
2018-03-03T21:12:47.171Z,21.40
2018-03-03T21:15:15.470Z,21.40
2018-03-03T21:17:43.125Z,21.40
2018-03-03T21:20:10.690Z,21.40
2018-03-03T21:22:38.204Z,21.40
2018-03-03T21:25:06.500Z,21.40
2018-03-03T21:27:34.801Z,21.40
2018-03-03T21:30:02.462Z,21.30
2018-03-03T21:32:29.968Z,21.40
2018-03-03T21:34:57.611Z,21.40
2018-03-03T21:37:25.126Z,21.40
2018-03-03T21:39:52.657Z,21.40
2018-03-03T21:42:20.969Z,21.40
2018-03-03T21:44:48.505Z,21.40
2018-03-03T21:47:16.809Z,21.50
2018-03-03T21:49:44.365Z,21.50
2018-03-03T21:52:11.888Z,21.50
2018-03-03T21:54:40.200Z,21.60
2018-03-03T21:57:07.841Z,21.50
2018-03-03T21:59:35.373Z,21.60
2018-03-03T22:02:02.980Z,21.60
2018-03-03T22:04:31.353Z,21.60
2018-03-03T22:06:58.914Z,21.60
2018-03-03T22:09:26.489Z,21.60
2018-03-03T22:11:53.993Z,21.60
2018-03-03T22:14:22.289Z,21.70
2018-03-03T22:16:49.873Z,21.60
2018-03-03T22:19:17.413Z,21.70
2018-03-03T22:21:44.933Z,21.70
2018-03-03T22:24:12.456Z,21.70
2018-03-03T22:26:39.973Z,21.70
2018-03-03T22:29:08.270Z,21.80
2018-03-03T22:31:35.834Z,21.70
2018-03-03T22:34:03.371Z,21.70
2018-03-03T22:36:30.941Z,21.70
2018-03-03T22:38:58.473Z,21.70
2018-03-03T22:41:26.751Z,21.70
2018-03-03T22:43:55.049Z,21.70
2018-03-03T22:46:22.569Z,21.60
2018-03-03T22:48:50.164Z,21.70
2018-03-03T22:51:17.681Z,21.70
2018-03-03T22:53:45.214Z,21.60
2018-03-03T22:56:12.741Z,21.60
2018-03-03T22:58:40.278Z,21.60
2018-03-03T23:01:08.576Z,21.60
2018-03-03T23:03:36.110Z,21.50
2018-03-03T23:06:04.416Z,21.60
2018-03-03T23:08:31.974Z,21.50
2018-03-03T23:10:59.541Z,21.60
2018-03-03T23:13:27.077Z,21.60
2018-03-03T23:15:54.666Z,21.60
2018-03-03T23:18:22.201Z,21.60
2018-03-03T23:20:49.724Z,21.60
2018-03-03T23:23:17.437Z,21.50
2018-03-03T23:25:44.979Z,21.50
2018-03-03T23:28:12.510Z,21.50
2018-03-03T23:30:40.817Z,21.50
2018-03-03T23:33:08.384Z,21.50
2018-03-03T23:35:35.941Z,21.50
2018-03-03T23:38:03.445Z,21.40
2018-03-03T23:40:30.973Z,21.40
2018-03-03T23:42:58.507Z,21.40
2018-03-03T23:45:26.060Z,21.40
2018-03-03T23:47:53.569Z,21.40
2018-03-03T23:50:21.186Z,21.40
2018-03-03T23:52:48.755Z,21.40
2018-03-03T23:55:16.291Z,21.40
2018-03-03T23:57:43.869Z,21.40
